WetterOnline ( http://www.wetteronline.de )

Wetter aktuell List

Aktuelles Wetter: List/Sylt (29m)

6-stündlich | Neueste Meldungen
Ortszeit Temperatur Wetter
Do, 17.01. 13:00 3.7° C bedeckt
Do, 17.01. 7:00 4.6° C bedeckt
Do, 17.01. 1:00 5.0° C bewölkt
Mi, 16.01. 19:00 6.0° C Regen
Mi, 16.01. 13:00 6.7° C bedeckt
Mi, 16.01. 7:00 6.4° C bewölkt
Mi, 16.01. 1:00 6.5° C bedeckt
Di, 15.01. 19:00 6.5° C Sprühregen
Ortszeit Temperatur Wetter
Do, 17.01. 17:30 0.4° C leichter Schneefall
Do, 17.01. 17:20 0.4° C leichter Schneefall
Do, 17.01. 17:10 0.6° C Schneegriesel
Do, 17.01. 17:00 0.8° C Sprühregen
Do, 17.01. 16:50 0.8° C Sprühregen
Do, 17.01. 16:40 2.4° C bewölkt
Do, 17.01. 16:30 3.0° C wolkig
Do, 17.01. 16:00 3.5° C bedeckt
Do, 17.01. 15:30 3.3° C bewölkt
Do, 17.01. 15:00 3.2° C bewölkt
Do, 17.01. 14:30 3.6° C leichter Regen
Ortszeit Relative Feuchte Sichtweite
Do, 17.01. 13:00 87% 35 km
Do, 17.01. 7:00 82% 27 km
Do, 17.01. 1:00 87% 20 km
Mi, 16.01. 19:00 95% 7 km
Mi, 16.01. 13:00 93% 10 km
Mi, 16.01. 7:00 93% -
Mi, 16.01. 1:00 91% -
Di, 15.01. 19:00 95% -
Ortszeit Relative Feuchte Sichtweite
Do, 17.01. 17:30 89% 15 km
Do, 17.01. 17:20 89% -
Do, 17.01. 17:10 86% -
Do, 17.01. 17:00 83% 35 km
Do, 17.01. 16:50 83% -
Do, 17.01. 16:40 87% -
Do, 17.01. 16:30 82% 26 km
Do, 17.01. 16:00 80% 27 km
Do, 17.01. 15:30 80% 27 km
Do, 17.01. 15:00 87% 30 km
Do, 17.01. 14:30 85% 17 km
Ortszeit Niederschlagsmenge Niederschlagsart
Do, 17.01. 13:00 0.3 l/m2 in 6 Std. Regen
Do, 17.01. 7:00 2 l/m2 in 12 Std. Regen
Do, 17.01. 1:00 2 l/m2 in 6 Std. Regen
Mi, 16.01. 19:00 1 l/m2 in 12 Std. Regen
Mi, 16.01. 13:00 0.1 l/m2 in 6 Std. -
Mi, 16.01. 7:00 0.4 l/m2 in 12 Std. -
Mi, 16.01. 1:00 0.4 l/m2 in 6 Std. -
Di, 15.01. 19:00 0.6 l/m2 in 12 Std. -
Ortszeit Niederschlagsmenge Niederschlagsart
Do, 17.01. 17:30 0.1 l/m2 in 1 Std. -
Do, 17.01. 17:20 keine Meldung -
Do, 17.01. 17:10 keine Meldung -
Do, 17.01. 17:00 0.1 l/m2 in 1 Std. Sprühregen
Do, 17.01. 16:50 keine Meldung -
Do, 17.01. 16:40 keine Meldung -
Do, 17.01. 16:30 0.0 l/m2 in 1 Std. -
Do, 17.01. 16:00 0.0 l/m2 in 1 Std. Regen
Do, 17.01. 15:30 0.0 l/m2 in 1 Std. -
Do, 17.01. 15:00 0.1 l/m2 in 1 Std. Regen
Do, 17.01. 14:30 0.1 l/m2 in 1 Std. -
Ortszeit Stärke Spitze Richtung
km/h Bft. km/h Grad Sektor
Do, 17.01. 13:00 30 5 54 310° NW
Do, 17.01. 7:00 33 5 63 260° W
Do, 17.01. 1:00 20 4 78 260° W
Mi, 16.01. 19:00 50 6 69 220° SW
Mi, 16.01. 13:00 37 5 54 230° SW
Mi, 16.01. 7:00 29 5 50 240° SW
Mi, 16.01. 1:00 35 5 50 250° W
Di, 15.01. 19:00 29 5 61 270° W
Ortszeit Stärke Spitze Richtung
km/h Bft. km/h Grad Sektor
Do, 17.01. 17:30 37 5 57 20° N
Do, 17.01. 17:20 37 5 - 20° N
Do, 17.01. 17:10 39 6 - 30° NO
Do, 17.01. 17:00 47 6 61 30° NO
Do, 17.01. 16:50 47 6 - 30° NO
Do, 17.01. 16:40 39 6 - 330° NW
Do, 17.01. 16:30 41 6 50 320° NW
Do, 17.01. 16:00 33 5 46 320° NW
Do, 17.01. 15:30 33 5 44 320° NW
Do, 17.01. 15:00 30 5 52 310° NW
Do, 17.01. 14:30 36 5 50 320° NW
Ortszeit Untergrenze Bedeckung Gattung
total tief tief mittel hoch
Do, 17.01. 13:00 300 m 8/8 8/8 - - -
Do, 17.01. 7:00 660 m 8/8 8/8 - - -
Do, 17.01. 1:00 510 m 7/8 7/8 - - -
Mi, 16.01. 19:00 120 m 7/8 7/8 - - -
Mi, 16.01. 13:00 210 m 8/8 8/8 - - -
Mi, 16.01. 7:00 270 m 8/8 7/8 - - -
Mi, 16.01. 1:00 990 m 8/8 8/8 - - -
Di, 15.01. 19:00 180 m 8/8 8/8 - - -
Ortszeit Bedeckungsgrad in Achtel und Wolkenuntergrenze
Do, 17.01. 17:30 3(240m) 7(690m) 8(960m)
Do, 17.01. 17:20 3(240m) 7(690m) 8(960m)
Do, 17.01. 17:10 3(270m) 6(570m) 8(690m)
Do, 17.01. 17:00 3(270m) 6(630m) 8(4200m)
Do, 17.01. 16:50 3(270m) 6(630m) 8(4200m)
Do, 17.01. 16:40 3(300m) 5(600m) 8(3900m)
Do, 17.01. 16:30 3(390m) 8(3900m)
Do, 17.01. 16:00 8(3300m) 8(3300m)
Do, 17.01. 15:30 1(450m) 4(1500m) 8(3600m)
Do, 17.01. 15:00 1(600m) 7(1440m)
Do, 17.01. 14:30 1(480m) 7(1260m) 8(2700m)
Ortszeit Luftdruck NN (hPa) Tendenz (hPa in 3 Std.)
Do, 17.01. 13:00 993 + 2,3
Do, 17.01. 7:00 991 - 0,8
Do, 17.01. 1:00 992 - 0,9
Mi, 16.01. 19:00 994 - 2,8
Mi, 16.01. 13:00 999 - 2,2
Mi, 16.01. 7:00 1002 - 1,6
Mi, 16.01. 1:00 1004 - 0,3
Di, 15.01. 19:00 1005 + 0,5
Ortszeit Luftdruck NN (hPa) Tendenz (hPa in 3 Std.)
Do, 17.01. 17:30 999 + 4,4
Do, 17.01. 17:20 999 keine Meldung
Do, 17.01. 17:10 998 keine Meldung
Do, 17.01. 17:00 997 + 3,0
Do, 17.01. 16:50 997 keine Meldung
Do, 17.01. 16:40 996 keine Meldung
Do, 17.01. 16:30 995 + 1,8
Do, 17.01. 16:00 995 + 1,6
Do, 17.01. 15:30 995 + 1,7
Do, 17.01. 15:00 994 + 1,6
Do, 17.01. 14:30 994 + 1,9
Ortszeit Schneehöhe (cm)
Do, 17.01. 13:00 0
Do, 17.01. 7:00 0
Do, 17.01. 1:00 0
Mi, 16.01. 19:00 0
Mi, 16.01. 13:00 0
Mi, 16.01. 7:00 0
Mi, 16.01. 1:00 0
Di, 15.01. 19:00 0
Ortszeit Schneehöhe (cm)
Do, 17.01. 17:30 0
Do, 17.01. 17:20 0
Do, 17.01. 17:10 0
Do, 17.01. 17:00 0
Do, 17.01. 16:50 0
Do, 17.01. 16:40 0
Do, 17.01. 16:30 0
Do, 17.01. 16:00 0
Do, 17.01. 15:30 0
Do, 17.01. 15:00 0
Do, 17.01. 14:30 0
Link zu dieser Seite / Seite empfehlen

Das Wetter in ...